sensor_id;sensor_type;location;lat;lon;timestamp;temperature;humidity
42877;DHT22;42341;40.498;72.818;2023-02-19T00:01:41;5.90;99.90
42877;DHT22;42341;40.498;72.818;2023-02-19T00:04:18;6.00;99.90
42877;DHT22;42341;40.498;72.818;2023-02-19T00:06:47;6.00;99.90
42877;DHT22;42341;40.498;72.818;2023-02-19T00:09:15;6.00;99.90
42877;DHT22;42341;40.498;72.818;2023-02-19T00:11:42;6.00;99.90
42877;DHT22;42341;40.498;72.818;2023-02-19T00:14:08;6.00;99.90
42877;DHT22;42341;40.498;72.818;2023-02-19T00:16:37;6.00;99.90
42877;DHT22;42341;40.498;72.818;2023-02-19T00:19:05;6.00;99.90
42877;DHT22;42341;40.498;72.818;2023-02-19T00:21:32;6.10;99.90
42877;DHT22;42341;40.498;72.818;2023-02-19T00:24:01;6.10;99.90
42877;DHT22;42341;40.498;72.818;2023-02-19T00:26:27;6.10;99.90
42877;DHT22;42341;40.498;72.818;2023-02-19T00:28:56;6.20;99.90
42877;DHT22;42341;40.498;72.818;2023-02-19T00:31:27;6.10;99.90
42877;DHT22;42341;40.498;72.818;2023-02-19T00:33:56;6.20;99.90
42877;DHT22;42341;40.498;72.818;2023-02-19T00:36:23;6.10;99.90
42877;DHT22;42341;40.498;72.818;2023-02-19T00:38:49;6.10;99.90
42877;DHT22;42341;40.498;72.818;2023-02-19T00:41:16;6.10;99.90
42877;DHT22;42341;40.498;72.818;2023-02-19T00:43:52;6.10;99.90
42877;DHT22;42341;40.498;72.818;2023-02-19T00:46:29;6.10;99.90
42877;DHT22;42341;40.498;72.818;2023-02-19T00:48:56;6.00;99.90
42877;DHT22;42341;40.498;72.818;2023-02-19T00:51:25;5.90;99.90
42877;DHT22;42341;40.498;72.818;2023-02-19T00:53:52;5.90;99.90
42877;DHT22;42341;40.498;72.818;2023-02-19T00:56:18;6.00;99.90
42877;DHT22;42341;40.498;72.818;2023-02-19T00:58:44;6.00;99.90
42877;DHT22;42341;40.498;72.818;2023-02-19T01:01:11;6.00;99.90
42877;DHT22;42341;40.498;72.818;2023-02-19T01:03:37;6.00;99.90
42877;DHT22;42341;40.498;72.818;2023-02-19T01:06:05;6.00;99.90
42877;DHT22;42341;40.498;72.818;2023-02-19T01:08:32;5.90;99.90
42877;DHT22;42341;40.498;72.818;2023-02-19T01:10:58;6.00;99.90
42877;DHT22;42341;40.498;72.818;2023-02-19T01:13:25;5.90;99.90
42877;DHT22;42341;40.498;72.818;2023-02-19T01:15:51;6.00;99.90
42877;DHT22;42341;40.498;72.818;2023-02-19T01:18:17;5.90;99.90
42877;DHT22;42341;40.498;72.818;2023-02-19T01:20:44;5.80;99.90
42877;DHT22;42341;40.498;72.818;2023-02-19T01:23:11;5.80;99.90
42877;DHT22;42341;40.498;72.818;2023-02-19T01:25:38;5.80;99.90
42877;DHT22;42341;40.498;72.818;2023-02-19T01:28:05;5.70;99.90
42877;DHT22;42341;40.498;72.818;2023-02-19T01:30:36;5.70;99.90
42877;DHT22;42341;40.498;72.818;2023-02-19T01:33:06;5.70;99.90
42877;DHT22;42341;40.498;72.818;2023-02-19T01:35:32;5.70;99.90
42877;DHT22;42341;40.498;72.818;2023-02-19T01:37:58;5.70;99.90
42877;DHT22;42341;40.498;72.818;2023-02-19T01:40:25;5.60;99.90
42877;DHT22;42341;40.498;72.818;2023-02-19T01:42:51;5.60;99.90
42877;DHT22;42341;40.498;72.818;2023-02-19T01:45:26;5.70;99.90
42877;DHT22;42341;40.498;72.818;2023-02-19T01:48:41;5.70;99.90
42877;DHT22;42341;40.498;72.818;2023-02-19T01:50:49;5.70;99.90
42877;DHT22;42341;40.498;72.818;2023-02-19T01:53:21;5.70;99.90
42877;DHT22;42341;40.498;72.818;2023-02-19T01:55:50;5.80;99.90
42877;DHT22;42341;40.498;72.818;2023-02-19T01:58:17;5.70;99.90
42877;DHT22;42341;40.498;72.818;2023-02-19T02:00:43;5.80;99.90
42877;DHT22;42341;40.498;72.818;2023-02-19T02:03:09;5.90;99.90
42877;DHT22;42341;40.498;72.818;2023-02-19T02:05:49;6.00;99.90
42877;DHT22;42341;40.498;72.818;2023-02-19T02:08:19;5.80;99.90
42877;DHT22;42341;40.498;72.818;2023-02-19T02:11:03;5.80;99.90
42877;DHT22;42341;40.498;72.818;2023-02-19T02:13:32;5.90;99.90
42877;DHT22;42341;40.498;72.818;2023-02-19T02:22:22;5.90;99.90
42877;DHT22;42341;40.498;72.818;2023-02-19T02:30:26;5.90;99.90
42877;DHT22;42341;40.498;72.818;2023-02-19T02:33:18;5.80;99.90
42877;DHT22;42341;40.498;72.818;2023-02-19T02:35:48;5.90;99.90
42877;DHT22;42341;40.498;72.818;2023-02-19T02:38:18;5.90;99.90
42877;DHT22;42341;40.498;72.818;2023-02-19T02:40:45;6.00;99.90
42877;DHT22;42341;40.498;72.818;2023-02-19T02:43:12;6.00;99.90
42877;DHT22;42341;40.498;72.818;2023-02-19T02:45:38;6.10;99.90
42877;DHT22;42341;40.498;72.818;2023-02-19T02:50:38;6.00;99.90
42877;DHT22;42341;40.498;72.818;2023-02-19T02:53:10;6.10;99.90
42877;DHT22;42341;40.498;72.818;2023-02-19T02:55:56;6.10;99.90
42877;DHT22;42341;40.498;72.818;2023-02-19T02:58:25;6.20;99.90
42877;DHT22;42341;40.498;72.818;2023-02-19T03:00:56;6.20;99.90
42877;DHT22;42341;40.498;72.818;2023-02-19T03:03:46;6.40;99.90
42877;DHT22;42341;40.498;72.818;2023-02-19T03:06:14;6.50;99.90
42877;DHT22;42341;40.498;72.818;2023-02-19T03:11:20;6.60;99.90
42877;DHT22;42341;40.498;72.818;2023-02-19T03:14:21;6.70;99.90
42877;DHT22;42341;40.498;72.818;2023-02-19T03:17:12;6.60;99.90
42877;DHT22;42341;40.498;72.818;2023-02-19T03:19:57;6.60;99.90
42877;DHT22;42341;40.498;72.818;2023-02-19T03:22:30;6.60;99.90
42877;DHT22;42341;40.498;72.818;2023-02-19T03:25:02;6.60;99.90
42877;DHT22;42341;40.498;72.818;2023-02-19T03:27:48;6.60;99.90
42877;DHT22;42341;40.498;72.818;2023-02-19T03:30:21;6.60;99.90
42877;DHT22;42341;40.498;72.818;2023-02-19T03:35:40;6.70;99.90
42877;DHT22;42341;40.498;72.818;2023-02-19T03:43:57;6.90;99.90
42877;DHT22;42341;40.498;72.818;2023-02-19T03:46:32;7.10;99.90
42877;DHT22;42341;40.498;72.818;2023-02-19T03:49:17;7.20;99.90
42877;DHT22;42341;40.498;72.818;2023-02-19T03:52:05;7.20;99.90
42877;DHT22;42341;40.498;72.818;2023-02-19T03:57:42;7.50;99.90
42877;DHT22;42341;40.498;72.818;2023-02-19T04:00:23;7.50;99.90
42877;DHT22;42341;40.498;72.818;2023-02-19T04:05:34;7.50;99.90
42877;DHT22;42341;40.498;72.818;2023-02-19T04:08:07;7.50;99.90
42877;DHT22;42341;40.498;72.818;2023-02-19T04:10:34;7.40;99.90
42877;DHT22;42341;40.498;72.818;2023-02-19T04:13:33;7.40;99.90
42877;DHT22;42341;40.498;72.818;2023-02-19T04:16:00;7.50;99.90
42877;DHT22;42341;40.498;72.818;2023-02-19T04:18:28;7.50;99.90
42877;DHT22;42341;40.498;72.818;2023-02-19T04:20:56;7.50;99.90
42877;DHT22;42341;40.498;72.818;2023-02-19T04:23:26;7.60;99.90
42877;DHT22;42341;40.498;72.818;2023-02-19T04:25:56;7.60;99.90
42877;DHT22;42341;40.498;72.818;2023-02-19T04:28:23;7.70;99.90
42877;DHT22;42341;40.498;72.818;2023-02-19T04:30:49;7.60;99.90
42877;DHT22;42341;40.498;72.818;2023-02-19T04:33:15;7.70;99.90
42877;DHT22;42341;40.498;72.818;2023-02-19T04:35:41;7.90;99.90
42877;DHT22;42341;40.498;72.818;2023-02-19T04:38:07;8.10;99.90
42877;DHT22;42341;40.498;72.818;2023-02-19T04:40:33;8.00;99.90
42877;DHT22;42341;40.498;72.818;2023-02-19T04:42:59;8.10;99.90
42877;DHT22;42341;40.498;72.818;2023-02-19T04:45:25;8.20;99.90
42877;DHT22;42341;40.498;72.818;2023-02-19T04:47:51;8.20;99.90
42877;DHT22;42341;40.498;72.818;2023-02-19T04:50:17;8.40;99.90
42877;DHT22;42341;40.498;72.818;2023-02-19T04:52:42;8.50;99.90
42877;DHT22;42341;40.498;72.818;2023-02-19T04:55:09;8.50;99.90
42877;DHT22;42341;40.498;72.818;2023-02-19T04:57:35;8.60;99.90
42877;DHT22;42341;40.498;72.818;2023-02-19T05:00:01;8.60;99.90
42877;DHT22;42341;40.498;72.818;2023-02-19T05:02:28;8.60;99.90
42877;DHT22;42341;40.498;72.818;2023-02-19T05:04:53;8.60;99.90
42877;DHT22;42341;40.498;72.818;2023-02-19T05:07:19;8.60;99.90
42877;DHT22;42341;40.498;72.818;2023-02-19T05:09:45;8.60;99.90
42877;DHT22;42341;40.498;72.818;2023-02-19T05:12:11;8.80;99.90
42877;DHT22;42341;40.498;72.818;2023-02-19T05:14:37;8.80;99.90
42877;DHT22;42341;40.498;72.818;2023-02-19T05:17:03;9.00;99.90
42877;DHT22;42341;40.498;72.818;2023-02-19T05:19:29;9.40;99.90
42877;DHT22;42341;40.498;72.818;2023-02-19T05:21:54;9.60;99.90
42877;DHT22;42341;40.498;72.818;2023-02-19T05:24:20;10.00;99.90
42877;DHT22;42341;40.498;72.818;2023-02-19T05:26:49;10.50;99.90
42877;DHT22;42341;40.498;72.818;2023-02-19T05:29:15;10.80;99.90
42877;DHT22;42341;40.498;72.818;2023-02-19T05:31:41;11.40;99.90
42877;DHT22;42341;40.498;72.818;2023-02-19T05:34:07;11.80;99.10
42877;DHT22;42341;40.498;72.818;2023-02-19T05:36:32;11.90;98.90
42877;DHT22;42341;40.498;72.818;2023-02-19T05:38:58;12.60;97.60
42877;DHT22;42341;40.498;72.818;2023-02-19T05:41:29;13.10;95.90
42877;DHT22;42341;40.498;72.818;2023-02-19T05:43:56;12.90;94.70
42877;DHT22;42341;40.498;72.818;2023-02-19T05:46:24;12.70;93.30
42877;DHT22;42341;40.498;72.818;2023-02-19T05:48:51;12.60;93.40
42877;DHT22;42341;40.498;72.818;2023-02-19T05:51:19;12.30;94.50
42877;DHT22;42341;40.498;72.818;2023-02-19T05:53:46;12.20;93.80
42877;DHT22;42341;40.498;72.818;2023-02-19T05:56:34;12.40;94.80
42877;DHT22;42341;40.498;72.818;2023-02-19T05:59:03;12.40;93.00
42877;DHT22;42341;40.498;72.818;2023-02-19T06:01:31;12.60;92.30
42877;DHT22;42341;40.498;72.818;2023-02-19T06:03:57;13.00;91.90
42877;DHT22;42341;40.498;72.818;2023-02-19T06:06:24;16.20;85.40
